Hobart, OK

6:04 PM CDT on August 01, 2014 (GMT -0500)
Hobart Municipal (KHBR) Elev 1565 ft | 34.99 °N, 99.05 °W | Change Station

Current weather conditions updated 11 minutes ago

Clear
Clear
85 °F
Feels Like 84 °F
N
4
Wind Variable Wind from South

Tomorrow is forecast to be Warmer than today.

Today
High -- | Low -- °F
--% Chance of Precip.
Yesterday
High -- | Low -- °F
Precip. -- in
6:45 AM 8:39 PM
Waxing Crescent, 30% visible
Pressure 30.02 in
Visibility 10.0 miles
Clouds Clear
Heat Index 84 °F
Dew Point 58 °F
Humidity 40%
Rainfall 0.00 in
Snow Depth Not available.
UV 4 out of 12
Pollen 5.10 out of 12
Air Quality Not available.
Flu Activity Not available.
METAR KHBR 012253Z AUTO 19003KT 10SM CLR 29/14 A3006 RMK AO2 SLP164 T02940144 $

More Conditions Fewer Conditions

Pressure 30.02 in
Visibility 10.0 miles
Clouds Clear
Heat Index 84 °F
Dew Point 58 °F
Humidity 40%
Rainfall 0.00 in
Snow Depth Not available.
UV 4 out of 12
Pollen 5.10 out of 12
Air Quality Not available.
Flu Activity Not available.
METAR KHBR 012253Z AUTO 19003KT 10SM CLR 29/14 A3006 RMK AO2 SLP164 T02940144 $

More Conditions Fewer Conditions

10-Day Weather Forecast

Almanac

Astronomy

Aug. 01, 2014 Rise Set
Actual Time 6:45 AM CDT 8:39 PM CDT
Civil Twilight 6:17 AM CDT 9:06 PM CDT
Nautical Twilight 5:44 AM CDT 9:40 PM CDT
Astronomical Twilight 5:08 AM CDT 10:16 PM CDT
Moon 11:56 AM CDT 11:39 PM CDT
Length of Visible Light 14h 48m
Length of Day
13h 53m
Tomorrow will be 1m 40s shorter.
Waxing Crescent, 30% of the Moon is Illuminated
Today
Waxing Crescent
Aug 3
First Quarter
Aug 10
Full
Aug 17
Last Quarter
Aug 25
New

Today's Extremes

State Highs State Lows

Community

WunderPhotos

Upload Photos

1,739,750 photos uploaded!

Nearby

Snow Depth

Station Depth Elevation
No new snow has been reported.

Earthquake Activity

City Distance Mag. Time & Date
Medford, Oklahoma 133 miles 4.3 9:46 PM CDT
2014-07-28
Cherokee, Oklahoma 124 miles 3.0 5:26 PM CDT
2014-07-28
Medford, Oklahoma 141 miles 2.9 3:39 PM CDT
2014-07-27
Perry, Oklahoma 126 miles 2.8 4:28 AM CDT
2014-07-27
Minimum magnitude displayed is 2.5.

Coastal Water Temperatures

Place Temperature
No Stations Reporting

Nearby Weather Stations

Station Location Temp. Heat Index Dew Point Humidity Wind Precip. Elev Updated Type
Petzold Consulting, Lone Wolf, OK 85.5 °F 85 °F 60 °F 42% SE  at  3.6 mph 0.00 in / hr 1588 ft 6:03 PM CDT Rapid Fire

Show More Stations Show Fewer Stations